^^
Grace C. Lehan Memorial Weather Station Historical Data
Daily Summary for April 16, 2022 Units:  Both    English   Metric
Daily Weekly Monthly Yearly
  High: Low: Average:
Temperature: 7.5 °F /  -13.6 °C 4.8 °F /  -15.1 °C 6.2 °F /  -14.3 °C
Dew Point: -1 °F /  -18.3 °C -3 °F /  -19.4 °C -2.5 °F /  -19.2 °C
Humidity: 72.7% 62% 67%
Wind Speed: 2.2mph /  3.5km/h - 0.5mph /  0.8km/h
Wind Gust: 5mph /  8km/h - -
Wind- - NNW
Pressure: 30.43 in /  1030.4 hPa 30.37 in /  1028.3 hPa -
Precipitation: 0.00 in /  0 mm    
 
 
Tabular Data for April 16, 2022
Time Temperature Dew Point Pressure Wind Wind Speed Wind Gust Humidity Rainfall Rate (Hourly) solar
00:04 7.5 °F /  -13.6 °C -2.8 °F /  -19.3 °C 30.37in /  1028.3hPa Calm   1mph /  1.6km/h 62% 0.00in /  0mm 0 W/m2
00:09 7.5 °F /  -13.6 °C -2.7 °F /  -19.3 °C 30.38in /  1028.7hPa Calm     62.4% 0.00in /  0mm 0 W/m2
00:14 7.4 °F /  -13.7 °C -2.7 °F /  -19.3 °C 30.38in /  1028.7hPa NW 0.1mph /  0.2km/h 2mph /  3.2km/h 62.6% 0.00in /  0mm 0 W/m2
00:19 7.4 °F /  -13.7 °C -2.5 °F /  -19.2 °C 30.38in /  1028.7hPa NW 0.2mph /  0.3km/h 2mph /  3.2km/h 63% 0.00in /  0mm 0 W/m2
00:24 7.4 °F /  -13.7 °C -2.5 °F /  -19.2 °C 30.40in /  1029.3hPa NW 0.3mph /  0.5km/h 5mph /  8km/h 63% 0.00in /  0mm 0 W/m2
00:29 7.4 °F /  -13.7 °C -2.5 °F /  -19.2 °C 30.40in /  1029.3hPa NW 0.2mph /  0.3km/h 5mph /  8km/h 63% 0.00in /  0mm 0 W/m2
00:34 7.4 °F /  -13.7 °C -2.5 °F /  -19.2 °C 30.41in /  1029.7hPa NW 0.1mph /  0.2km/h 5mph /  8km/h 63% 0.00in /  0mm 0 W/m2
00:39 7.4 °F /  -13.7 °C -2.5 °F /  -19.2 °C 30.40in /  1029.3hPa Calm   1mph /  1.6km/h 63% 0.00in /  0mm 0 W/m2
00:44 7.4 °F /  -13.7 °C -2.6 °F /  -19.2 °C 30.40in /  1029.3hPa Calm   1mph /  1.6km/h 63% 0.00in /  0mm 0 W/m2
00:49 7.3 °F /  -13.7 °C -2.6 °F /  -19.2 °C 30.40in /  1029.3hPa Calm   1mph /  1.6km/h 63% 0.00in /  0mm 0 W/m2
00:54 7.2 °F /  -13.8 °C -2.7 °F /  -19.3 °C 30.40in /  1029.3hPa Calm   1mph /  1.6km/h 63% 0.00in /  0mm 0 W/m2
00:59 7.1 °F /  -13.8 °C -2.7 °F /  -19.3 °C 30.41in /  1029.7hPa Calm   1mph /  1.6km/h 63.4% 0.00in /  0mm 0 W/m2
01:04 7 °F /  -13.9 °C -2.6 °F /  -19.2 °C 30.41in /  1029.7hPa Calm   1mph /  1.6km/h 64% 0.00in /  0mm 0 W/m2
01:09 7 °F /  -13.9 °C -2.5 °F /  -19.2 °C 30.41in /  1029.7hPa Calm     64.5% 0.00in /  0mm 0 W/m2
01:14 6.9 °F /  -13.9 °C -2.4 °F /  -19.1 °C 30.42in /  1030hPa Calm     65% 0.00in /  0mm 0 W/m2
01:19 6.9 °F /  -13.9 °C -2.7 °F /  -19.3 °C 30.42in /  1030hPa Calm     64% 0.00in /  0mm 0 W/m2
01:24 6.8 °F /  -14 °C -2.5 °F /  -19.2 °C 30.42in /  1030hPa Calm     64.8% 0.00in /  0mm 0 W/m2
01:29 6.8 °F /  -14 °C -2.3 °F /  -19.1 °C 30.43in /  1030.4hPa Calm     65.6% 0.00in /  0mm 0 W/m2
01:34 6.8 °F /  -14 °C -2.2 °F /  -19 °C 30.43in /  1030.4hPa Calm     66% 0.00in /  0mm 0 W/m2
01:39 6.7 °F /  -14.1 °C -2.2 °F /  -19 °C 30.42in /  1030hPa NW 0.1mph /  0.2km/h 2mph /  3.2km/h 66% 0.00in /  0mm 0 W/m2
01:44 6.7 °F /  -14.1 °C -2.2 °F /  -19 °C 30.42in /  1030hPa Calm   2mph /  3.2km/h 66% 0.00in /  0mm 0 W/m2
01:49 6.7 °F /  -14.1 °C -2.2 °F /  -19 °C 30.42in /  1030hPa NW 0.2mph /  0.3km/h 3mph /  4.8km/h 66% 0.00in /  0mm 0 W/m2
01:54 6.7 °F /  -14.1 °C -2.2 °F /  -19 °C 30.42in /  1030hPa NW 0.1mph /  0.2km/h 3mph /  4.8km/h 66% 0.00in /  0mm 0 W/m2
01:59 6.7 °F /  -14.1 °C -2.2 °F /  -19 °C 30.41in /  1029.7hPa NW 0.1mph /  0.2km/h 3mph /  4.8km/h 66% 0.00in /  0mm 0 W/m2
02:04 6.7 °F /  -14.1 °C -2.2 °F /  -19 °C 30.42in /  1030hPa Calm   3mph /  4.8km/h 66% 0.00in /  0mm 0 W/m2
02:09 6.7 °F /  -14.1 °C -2.2 °F /  -19 °C 30.41in /  1029.7hPa NW 0.6mph /  1km/h 2mph /  3.2km/h 66% 0.00in /  0mm 0 W/m2
02:14 6.7 °F /  -14.1 °C -2.5 °F /  -19.2 °C 30.42in /  1030hPa NW 0.6mph /  1km/h 3mph /  4.8km/h 65% 0.00in /  0mm 0 W/m2
02:19 6.7 °F /  -14.1 °C -2.6 °F /  -19.2 °C 30.42in /  1030hPa NW 0.7mph /  1.1km/h 3mph /  4.8km/h 64.8% 0.00in /  0mm 0 W/m2
02:24 6.7 °F /  -14.1 °C -2.8 °F /  -19.3 °C 30.42in /  1030hPa NW 0.5mph /  0.8km/h 3mph /  4.8km/h 64.3% 0.00in /  0mm 0 W/m2
02:29 6.7 °F /  -14.1 °C -2.6 °F /  -19.2 °C 30.42in /  1030hPa NNW 0.5mph /  0.8km/h 4mph /  6.4km/h 64.8% 0.00in /  0mm 0 W/m2
02:34 6.7 °F /  -14.1 °C -2.7 °F /  -19.3 °C 30.42in /  1030hPa NNW 0.4mph /  0.6km/h 4mph /  6.4km/h 64.6% 0.00in /  0mm 0 W/m2
02:39 6.7 °F /  -14.1 °C -2.6 °F /  -19.2 °C 30.41in /  1029.7hPa NNW 0.7mph /  1.1km/h 4mph /  6.4km/h 65% 0.00in /  0mm 0 W/m2
02:44 6.7 °F /  -14.1 °C -2.6 °F /  -19.2 °C 30.41in /  1029.7hPa NNW 0.3mph /  0.5km/h 4mph /  6.4km/h 65% 0.00in /  0mm 0 W/m2
02:49 6.6 °F /  -14.1 °C -2.6 °F /  -19.2 °C 30.41in /  1029.7hPa NNW 0.4mph /  0.6km/h 4mph /  6.4km/h 65% 0.00in /  0mm 0 W/m2
02:54 6.6 °F /  -14.1 °C -2.7 °F /  -19.3 °C 30.41in /  1029.7hPa NNW 0.3mph /  0.5km/h 4mph /  6.4km/h 65% 0.00in /  0mm 0 W/m2
02:59 6.5 °F /  -14.2 °C -2.5 °F /  -19.2 °C 30.41in /  1029.7hPa Calm   4mph /  6.4km/h 65.5% 0.00in /  0mm 0 W/m2
03:04 6.5 °F /  -14.2 °C -2.4 °F /  -19.1 °C 30.41in /  1029.7hPa NNW 0.3mph /  0.5km/h 4mph /  6.4km/h 66% 0.00in /  0mm 0 W/m2
03:09 6.4 °F /  -14.2 °C -2.5 °F /  -19.2 °C 30.41in /  1029.7hPa NNW 0.4mph /  0.6km/h 2mph /  3.2km/h 66.2% 0.00in /  0mm 0 W/m2
03:14 6.3 °F /  -14.3 °C -2.5 °F /  -19.2 °C 30.40in /  1029.3hPa NNW 0.9mph /  1.4km/h 3mph /  4.8km/h 66.5% 0.00in /  0mm 0 W/m2
03:19 6.2 °F /  -14.3 °C -2.4 °F /  -19.1 °C 30.40in /  1029.3hPa NNW 0.9mph /  1.4km/h 5mph /  8km/h 67% 0.00in /  0mm 0 W/m2
03:24 6.2 °F /  -14.3 °C -2.4 °F /  -19.1 °C 30.40in /  1029.3hPa NNW 0.4mph /  0.6km/h 5mph /  8km/h 67% 0.00in /  0mm 0 W/m2
03:29 6.1 °F /  -14.4 °C -2.4 °F /  -19.1 °C 30.40in /  1029.3hPa NNW 0.1mph /  0.2km/h 5mph /  8km/h 67.3% 0.00in /  0mm 0 W/m2
03:34 6 °F /  -14.4 °C -2.3 °F /  -19.1 °C 30.40in /  1029.3hPa NNW 1mph /  1.6km/h 5mph /  8km/h 68% 0.00in /  0mm 0 W/m2
03:39 6 °F /  -14.4 °C -2.3 °F /  -19.1 °C 30.40in /  1029.3hPa NNW 0.1mph /  0.2km/h 3mph /  4.8km/h 68% 0.00in /  0mm 0 W/m2
03:44 6 °F /  -14.4 °C -2.3 °F /  -19.1 °C 30.40in /  1029.3hPa NNW 0.4mph /  0.6km/h 4mph /  6.4km/h 68% 0.00in /  0mm 0 W/m2
03:49 5.9 °F /  -14.5 °C -2.1 °F /  -18.9 °C 30.40in /  1029.3hPa NNW 0.1mph /  0.2km/h 4mph /  6.4km/h 68.7% 0.00in /  0mm 0 W/m2
03:54 5.9 °F /  -14.5 °C -1 °F /  -18.3 °C 30.40in /  1029.3hPa Calm   4mph /  6.4km/h 72.7% 0.00in /  0mm 0 W/m2
03:59 5.9 °F /  -14.5 °C -2.1 °F /  -18.9 °C 30.40in /  1029.3hPa NNW 0.7mph /  1.1km/h 4mph /  6.4km/h 69% 0.00in /  0mm 0 W/m2
04:00 5.8 °F /  -14.6 °C -2.2 °F /  -19 °C 30.40in /  1029.3hPa Calm   4mph /  6.4km/h 69% 0.00in /  0mm 0 W/m2
04:09 5.8 °F /  -14.6 °C -2.2 °F /  -19 °C 30.40in /  1029.3hPa Calm   1mph /  1.6km/h 69% 0.00in /  0mm 0 W/m2
04:14 5.8 °F /  -14.6 °C -1.9 °F /  -18.8 °C 30.40in /  1029.3hPa NNW 0.2mph /  0.3km/h 3mph /  4.8km/h 69.8% 0.00in /  0mm 0 W/m2
04:19 5.8 °F /  -14.6 °C -2.1 °F /  -18.9 °C 30.40in /  1029.3hPa NNW 0.3mph /  0.5km/h 3mph /  4.8km/h 69.2% 0.00in /  0mm 0 W/m2
04:24 5.7 °F /  -14.6 °C -2.2 °F /  -19 °C 30.40in /  1029.3hPa Calm   3mph /  4.8km/h 69.1% 0.00in /  0mm 0 W/m2
04:29 5.7 °F /  -14.6 °C -2 °F /  -18.9 °C 30.40in /  1029.3hPa NNW 0.3mph /  0.5km/h 3mph /  4.8km/h 70% 0.00in /  0mm 0 W/m2
04:34 5.7 °F /  -14.6 °C -2 °F /  -18.9 °C 30.40in /  1029.3hPa NNW 1.6mph /  2.6km/h 5mph /  8km/h 69.8% 0.00in /  0mm 0 W/m2
04:39 5.6 °F /  -14.7 °C -2.3 °F /  -19.1 °C 30.40in /  1029.3hPa NNW 1mph /  1.6km/h 5mph /  8km/h 69% 0.00in /  0mm 0 W/m2
04:44 5.6 °F /  -14.7 °C -2.4 °F /  -19.1 °C 30.40in /  1029.3hPa NNW 0.9mph /  1.4km/h 5mph /  8km/h 69% 0.00in /  0mm 0 W/m2
04:49 5.6 °F /  -14.7 °C -2.4 °F /  -19.1 °C 30.41in /  1029.7hPa NNW 1.2mph /  1.9km/h 5mph /  8km/h 69% 0.00in /  0mm 0 W/m2
04:54 5.6 °F /  -14.7 °C -2.4 °F /  -19.1 °C 30.41in /  1029.7hPa NNW 0.2mph /  0.3km/h 5mph /  8km/h 69% 0.00in /  0mm 0 W/m2
04:59 5.6 °F /  -14.7 °C -2.4 °F /  -19.1 °C 30.41in /  1029.7hPa NNW 0.3mph /  0.5km/h 5mph /  8km/h 69% 0.00in /  0mm 0 W/m2
05:04 5.5 °F /  -14.7 °C -2.4 °F /  -19.1 °C 30.41in /  1029.7hPa NNW 0.4mph /  0.6km/h 5mph /  8km/h 69% 0.00in /  0mm 0 W/m2
05:09 5.5 °F /  -14.7 °C -2.5 °F /  -19.2 °C 30.41in /  1029.7hPa NNW 1mph /  1.6km/h 4mph /  6.4km/h 69% 0.00in /  0mm 0 W/m2
05:14 5.5 °F /  -14.7 °C -2.5 °F /  -19.2 °C 30.41in /  1029.7hPa NNW 1.1mph /  1.8km/h 4mph /  6.4km/h 69% 0.00in /  0mm 0 W/m2
05:19 5.4 °F /  -14.8 °C -2.6 °F /  -19.2 °C 30.41in /  1029.7hPa NNW 1.2mph /  1.9km/h 4mph /  6.4km/h 68.8% 0.00in /  0mm 0 W/m2
05:24 5.4 °F /  -14.8 °C -2.6 °F /  -19.2 °C 30.41in /  1029.7hPa NNW 1.6mph /  2.6km/h 4mph /  6.4km/h 68.8% 0.00in /  0mm 0 W/m2
05:29 5.4 °F /  -14.8 °C -2.6 °F /  -19.2 °C 30.41in /  1029.7hPa NNW 2.2mph /  3.5km/h 4mph /  6.4km/h 68.7% 0.00in /  0mm 0 W/m2
05:34 5.4 °F /  -14.8 °C -2.9 °F /  -19.4 °C 30.41in /  1029.7hPa NNW 1.1mph /  1.8km/h 4mph /  6.4km/h 68% 0.00in /  0mm 0 W/m2
05:39 5.3 °F /  -14.8 °C -2.8 °F /  -19.3 °C 30.42in /  1030hPa NNW 0.7mph /  1.1km/h 4mph /  6.4km/h 68.3% 0.00in /  0mm 0 W/m2
05:44 5.3 °F /  -14.8 °C -2.6 °F /  -19.2 °C 30.42in /  1030hPa NNW 1.6mph /  2.6km/h 4mph /  6.4km/h 69% 0.00in /  0mm 0 W/m2
05:49 5.2 °F /  -14.9 °C -2.7 °F /  -19.3 °C 30.42in /  1030hPa NNW 0.3mph /  0.5km/h 4mph /  6.4km/h 69% 0.00in /  0mm 0 W/m2
05:54 5.2 °F /  -14.9 °C -2.8 °F /  -19.3 °C 30.42in /  1030hPa NNW 1.1mph /  1.8km/h 4mph /  6.4km/h 69% 0.00in /  0mm 0 W/m2
05:59 5.1 °F /  -14.9 °C -2.8 °F /  -19.3 °C 30.42in /  1030hPa NNW 0.8mph /  1.3km/h 4mph /  6.4km/h 69% 0.00in /  0mm 0 W/m2
06:04 5.1 °F /  -14.9 °C -2.9 °F /  -19.4 °C 30.42in /  1030hPa NNW 1.2mph /  1.9km/h 4mph /  6.4km/h 69% 0.00in /  0mm 0 W/m2
06:09 5 °F /  -15 °C -2.9 °F /  -19.4 °C 30.42in /  1030hPa NNW 1mph /  1.6km/h 5mph /  8km/h 69% 0.00in /  0mm 0 W/m2
06:14 4.9 °F /  -15.1 °C -3 °F /  -19.4 °C 30.42in /  1030hPa NNW 0.6mph /  1km/h 5mph /  8km/h 69% 0.00in /  0mm 0 W/m2
06:19 4.9 °F /  -15.1 °C -2.9 °F /  -19.4 °C 30.43in /  1030.4hPa NNW 0.9mph /  1.4km/h 5mph /  8km/h 69.3% 0.00in /  0mm 0 W/m2
06:24 4.9 °F /  -15.1 °C -2.7 °F /  -19.3 °C 30.43in /  1030.4hPa NNW 2mph /  3.2km/h 5mph /  8km/h 70% 0.00in /  0mm 0 W/m2
06:29 4.8 °F /  -15.1 °C -2.8 °F /  -19.3 °C 30.43in /  1030.4hPa NNW 1.7mph /  2.7km/h 5mph /  8km/h 70% 0.00in /  0mm 0 W/m2
06:33 4.8 °F /  -15.1 °C -2.8 °F /  -19.3 °C 30.42in /  1030hPa NNW 0.5mph /  0.8km/h 5mph /  8km/h 70% 0.00in /  0mm 0 W/m2
Hartford County Weather
Compliments of Weather Underground - 2 mb